sensor_id;sensor_type;location;lat;lon;timestamp;P1;durP1;ratioP1;P2;durP2;ratioP2
63782;SDS011;49925;52.522;5.732;2022-12-18T02:53:36;112.25;;;31.50;;
63782;SDS011;49925;52.522;5.732;2022-12-18T02:56:21;108.55;;;30.63;;
63782;SDS011;49925;52.522;5.732;2022-12-18T03:37:06;101.88;;;29.63;;
63782;SDS011;49925;52.522;5.732;2022-12-18T03:39:34;102.47;;;28.00;;
63782;SDS011;49925;52.522;5.732;2022-12-18T10:28:14;38.17;;;13.77;;
63782;SDS011;49925;52.522;5.732;2022-12-18T10:30:42;35.28;;;13.70;;
63782;SDS011;49925;52.522;5.732;2022-12-18T10:33:13;35.53;;;13.32;;
63782;SDS011;49925;52.522;5.732;2022-12-18T14:46:33;36.72;;;14.00;;
63782;SDS011;49925;52.522;5.732;2022-12-18T14:49:03;37.92;;;14.73;;
63782;SDS011;49925;52.522;5.732;2022-12-18T14:51:48;33.83;;;13.98;;
63782;SDS011;49925;52.522;5.732;2022-12-18T14:54:22;37.40;;;14.18;;
63782;SDS011;49925;52.522;5.732;2022-12-18T14:57:36;39.85;;;14.68;;
63782;SDS011;49925;52.522;5.732;2022-12-18T14:59:51;40.40;;;14.03;;
63782;SDS011;49925;52.522;5.732;2022-12-18T15:02:22;41.60;;;14.35;;
63782;SDS011;49925;52.522;5.732;2022-12-18T15:05:04;39.15;;;14.30;;
63782;SDS011;49925;52.522;5.732;2022-12-18T15:07:52;38.92;;;13.80;;
63782;SDS011;49925;52.522;5.732;2022-12-18T15:10:23;45.53;;;15.05;;
63782;SDS011;49925;52.522;5.732;2022-12-18T15:20:42;37.35;;;14.77;;
63782;SDS011;49925;52.522;5.732;2022-12-18T15:26:11;39.65;;;14.80;;
63782;SDS011;49925;52.522;5.732;2022-12-18T15:28:54;40.60;;;14.75;;
63782;SDS011;49925;52.522;5.732;2022-12-18T15:31:33;31.30;;;14.30;;
63782;SDS011;49925;52.522;5.732;2022-12-18T15:34:05;39.30;;;14.75;;
63782;SDS011;49925;52.522;5.732;2022-12-18T15:36:39;35.05;;;13.80;;
63782;SDS011;49925;52.522;5.732;2022-12-18T15:39:06;34.85;;;14.13;;
63782;SDS011;49925;52.522;5.732;2022-12-18T15:41:37;34.40;;;13.82;;
63782;SDS011;49925;52.522;5.732;2022-12-18T15:44:25;44.10;;;14.57;;
63782;SDS011;49925;52.522;5.732;2022-12-18T15:46:52;33.42;;;13.45;;
63782;SDS011;49925;52.522;5.732;2022-12-18T15:49:19;39.65;;;15.10;;
63782;SDS011;49925;52.522;5.732;2022-12-18T15:51:46;36.83;;;14.57;;
63782;SDS011;49925;52.522;5.732;2022-12-18T15:54:22;36.50;;;14.38;;
63782;SDS011;49925;52.522;5.732;2022-12-18T15:57:09;36.92;;;14.65;;
63782;SDS011;49925;52.522;5.732;2022-12-18T15:59:52;42.95;;;14.73;;
63782;SDS011;49925;52.522;5.732;2022-12-18T16:02:24;41.75;;;15.32;;
63782;SDS011;49925;52.522;5.732;2022-12-18T16:04:52;36.75;;;14.95;;
63782;SDS011;49925;52.522;5.732;2022-12-18T16:07:20;36.95;;;15.32;;
63782;SDS011;49925;52.522;5.732;2022-12-18T16:09:51;41.60;;;15.52;;
63782;SDS011;49925;52.522;5.732;2022-12-18T16:12:22;45.42;;;16.05;;
63782;SDS011;49925;52.522;5.732;2022-12-18T16:14:49;42.05;;;15.63;;
63782;SDS011;49925;52.522;5.732;2022-12-18T16:17:17;38.97;;;14.70;;
63782;SDS011;49925;52.522;5.732;2022-12-18T16:19:44;41.58;;;15.35;;
63782;SDS011;49925;52.522;5.732;2022-12-18T16:22:19;39.85;;;15.18;;
63782;SDS011;49925;52.522;5.732;2022-12-18T16:24:48;35.97;;;14.68;;
63782;SDS011;49925;52.522;5.732;2022-12-18T16:27:17;32.78;;;15.23;;
63782;SDS011;49925;52.522;5.732;2022-12-18T16:29:44;38.35;;;14.90;;
63782;SDS011;49925;52.522;5.732;2022-12-18T16:32:12;36.85;;;14.95;;
63782;SDS011;49925;52.522;5.732;2022-12-18T16:34:45;37.30;;;15.27;;
63782;SDS011;49925;52.522;5.732;2022-12-18T16:37:13;39.40;;;14.68;;
63782;SDS011;49925;52.522;5.732;2022-12-18T16:39:41;42.30;;;15.27;;
63782;SDS011;49925;52.522;5.732;2022-12-18T16:42:14;43.10;;;16.30;;
63782;SDS011;49925;52.522;5.732;2022-12-18T16:44:46;45.30;;;16.48;;
63782;SDS011;49925;52.522;5.732;2022-12-18T16:47:15;41.55;;;16.42;;
63782;SDS011;49925;52.522;5.732;2022-12-18T16:49:43;45.85;;;16.65;;
63782;SDS011;49925;52.522;5.732;2022-12-18T16:52:17;45.58;;;16.55;;
63782;SDS011;49925;52.522;5.732;2022-12-18T16:54:44;44.20;;;16.48;;
63782;SDS011;49925;52.522;5.732;2022-12-18T16:57:12;37.97;;;15.70;;
63782;SDS011;49925;52.522;5.732;2022-12-18T16:59:41;44.50;;;17.23;;
63782;SDS011;49925;52.522;5.732;2022-12-18T17:02:18;43.75;;;16.25;;
63782;SDS011;49925;52.522;5.732;2022-12-18T17:04:49;41.90;;;17.25;;
63782;SDS011;49925;52.522;5.732;2022-12-18T17:07:19;41.88;;;16.30;;
63782;SDS011;49925;52.522;5.732;2022-12-18T17:09:46;46.08;;;16.90;;
63782;SDS011;49925;52.522;5.732;2022-12-18T20:43:44;64.82;;;24.67;;
63782;SDS011;49925;52.522;5.732;2022-12-18T20:46:11;66.43;;;23.55;;
63782;SDS011;49925;52.522;5.732;2022-12-18T20:48:42;63.75;;;24.90;;
63782;SDS011;49925;52.522;5.732;2022-12-18T20:51:11;61.50;;;23.75;;
63782;SDS011;49925;52.522;5.732;2022-12-18T20:53:40;66.13;;;25.33;;
63782;SDS011;49925;52.522;5.732;2022-12-18T20:56:09;68.70;;;22.27;;
63782;SDS011;49925;52.522;5.732;2022-12-18T20:58:46;63.00;;;24.45;;
63782;SDS011;49925;52.522;5.732;2022-12-18T21:01:20;76.10;;;27.40;;
63782;SDS011;49925;52.522;5.732;2022-12-18T21:03:49;72.97;;;26.13;;
63782;SDS011;49925;52.522;5.732;2022-12-18T21:06:17;74.07;;;27.65;;
63782;SDS011;49925;52.522;5.732;2022-12-18T21:08:47;60.42;;;24.17;;
63782;SDS011;49925;52.522;5.732;2022-12-18T21:11:16;64.60;;;22.73;;
63782;SDS011;49925;52.522;5.732;2022-12-18T21:14:37;66.30;;;24.77;;
63782;SDS011;49925;52.522;5.732;2022-12-18T21:17:03;72.63;;;26.38;;
63782;SDS011;49925;52.522;5.732;2022-12-18T21:19:30;75.35;;;25.90;;
63782;SDS011;49925;52.522;5.732;2022-12-18T21:21:57;78.85;;;25.27;;
63782;SDS011;49925;52.522;5.732;2022-12-18T21:24:25;71.55;;;24.52;;
63782;SDS011;49925;52.522;5.732;2022-12-18T21:27:00;70.40;;;22.00;;
63782;SDS011;49925;52.522;5.732;2022-12-18T21:29:27;74.60;;;24.98;;
63782;SDS011;49925;52.522;5.732;2022-12-18T21:31:54;63.40;;;22.58;;
63782;SDS011;49925;52.522;5.732;2022-12-18T21:34:25;78.72;;;25.00;;
63782;SDS011;49925;52.522;5.732;2022-12-18T21:36:54;68.15;;;23.65;;
63782;SDS011;49925;52.522;5.732;2022-12-18T21:39:24;68.40;;;24.77;;
63782;SDS011;49925;52.522;5.732;2022-12-18T21:41:55;66.53;;;23.02;;
63782;SDS011;49925;52.522;5.732;2022-12-18T21:44:42;67.53;;;23.92;;
63782;SDS011;49925;52.522;5.732;2022-12-18T21:47:10;71.70;;;24.42;;
63782;SDS011;49925;52.522;5.732;2022-12-18T21:49:48;67.95;;;23.30;;
63782;SDS011;49925;52.522;5.732;2022-12-18T21:52:19;68.63;;;23.13;;
63782;SDS011;49925;52.522;5.732;2022-12-18T21:54:58;70.95;;;25.35;;
63782;SDS011;49925;52.522;5.732;2022-12-18T21:57:35;69.20;;;23.92;;
63782;SDS011;49925;52.522;5.732;2022-12-18T22:00:04;63.90;;;24.67;;
63782;SDS011;49925;52.522;5.732;2022-12-18T22:02:36;65.55;;;23.10;;
63782;SDS011;49925;52.522;5.732;2022-12-18T22:05:04;70.65;;;25.50;;
63782;SDS011;49925;52.522;5.732;2022-12-18T22:07:32;72.03;;;25.42;;
63782;SDS011;49925;52.522;5.732;2022-12-18T22:09:59;76.25;;;22.85;;
63782;SDS011;49925;52.522;5.732;2022-12-18T22:12:27;74.68;;;26.58;;
63782;SDS011;49925;52.522;5.732;2022-12-18T22:15:09;82.85;;;27.67;;
63782;SDS011;49925;52.522;5.732;2022-12-18T22:17:46;66.40;;;24.20;;
63782;SDS011;49925;52.522;5.732;2022-12-18T22:20:25;64.68;;;23.98;;
63782;SDS011;49925;52.522;5.732;2022-12-18T22:22:54;72.63;;;25.00;;
63782;SDS011;49925;52.522;5.732;2022-12-18T22:25:22;74.30;;;26.00;;
63782;SDS011;49925;52.522;5.732;2022-12-18T22:27:49;82.30;;;26.75;;
63782;SDS011;49925;52.522;5.732;2022-12-18T22:30:35;78.32;;;26.75;;
63782;SDS011;49925;52.522;5.732;2022-12-18T22:33:02;76.40;;;26.45;;
63782;SDS011;49925;52.522;5.732;2022-12-18T22:35:29;76.20;;;25.92;;
63782;SDS011;49925;52.522;5.732;2022-12-18T22:37:57;77.55;;;25.80;;
63782;SDS011;49925;52.522;5.732;2022-12-18T22:40:25;77.28;;;26.33;;
63782;SDS011;49925;52.522;5.732;2022-12-18T22:42:53;86.00;;;27.23;;
63782;SDS011;49925;52.522;5.732;2022-12-18T22:45:21;73.47;;;25.77;;
63782;SDS011;49925;52.522;5.732;2022-12-18T22:47:50;75.30;;;26.52;;
63782;SDS011;49925;52.522;5.732;2022-12-18T22:50:17;71.82;;;24.98;;
63782;SDS011;49925;52.522;5.732;2022-12-18T22:52:44;75.72;;;24.08;;
63782;SDS011;49925;52.522;5.732;2022-12-18T22:55:11;77.90;;;26.48;;
63782;SDS011;49925;52.522;5.732;2022-12-18T22:57:38;87.18;;;28.50;;
63782;SDS011;49925;52.522;5.732;2022-12-18T23:00:14;74.22;;;26.42;;
63782;SDS011;49925;52.522;5.732;2022-12-18T23:02:49;74.60;;;25.63;;
